Time;durP1;ratioP1;P1;durP2;ratioP2;P2;SDS_P1;SDS_P2;PMS_P1;PMS_P2;Temp;Humidity;BMP_temperature;BMP_pressure;BME280_temperature;BME280_humidity;BME280_pressure;Samples;Min_cycle;Max_cycle;Signal;HPM_P1;HPM_P2
2023/04/04 02:02:15;;;;;;;4.12;1.80;;;;;;;;;;4316440;28;20486;-67
2023/04/04 02:04:43;;;;;;;5.95;1.62;;;;;;;;;;4239203;33;20057;-67
2023/04/04 02:07:09;;;;;;;2.47;2.12;;;;;;;;;;4235862;33;20077;-69
2023/04/04 02:09:35;;;;;;;3.22;1.30;;;;;;;;;;4239115;33;20062;-68
2023/04/04 02:12:01;;;;;;;12.23;2.60;;;;;;;;;;4238273;33;20459;-69
2023/04/04 02:14:27;;;;;;;8.00;1.87;;;;;;;;;;4246910;33;20103;-68
2023/04/04 02:16:53;;;;;;;4.25;2.60;;;;;;;;;;4222017;34;20035;-68
2023/04/04 02:19:20;;;;;;;6.25;2.55;;;;;;;;;;4220163;34;20057;-70
2023/04/04 02:21:46;;;;;;;7.50;2.40;;;;;;;;;;4222998;34;20046;-68
2023/04/04 02:24:13;;;;;;;5.22;1.87;;;;;;;;;;4221579;34;20061;-68
2023/04/04 02:26:40;;;;;;;2.25;1.17;;;;;;;;;;4221094;34;20043;-68
2023/04/04 02:29:07;;;;;;;6.47;1.55;;;;;;;;;;4221347;34;20105;-70
2023/04/04 02:31:33;;;;;;;4.35;2.00;;;;;;;;;;4221356;33;20068;-68
2023/04/04 02:34:00;;;;;;;6.95;2.17;;;;;;;;;;4220723;34;20185;-68
2023/04/04 02:36:27;;;;;;;7.22;2.37;;;;;;;;;;4221186;34;20080;-68
2023/04/04 02:38:55;;;;;;;4.90;1.73;;;;;;;;;;4220643;34;20051;-68
2023/04/04 02:41:22;;;;;;;9.40;1.75;;;;;;;;;;4219276;34;20047;-68
2023/04/04 02:43:48;;;;;;;3.90;1.95;;;;;;;;;;4222478;34;20809;-68
2023/04/04 02:46:14;;;;;;;8.75;3.42;;;;;;;;;;4221704;34;20036;-68
2023/04/04 02:48:40;;;;;;;4.90;1.60;;;;;;;;;;4232257;33;20068;-68
2023/04/04 02:51:07;;;;;;;4.45;1.23;;;;;;;;;;4234788;33;20456;-69
2023/04/04 02:53:33;;;;;;;5.50;2.03;;;;;;;;;;4239108;33;20039;-68
2023/04/04 02:56:01;;;;;;;5.15;2.85;;;;;;;;;;4238261;33;20076;-69
2023/04/04 02:58:28;;;;;;;4.50;2.12;;;;;;;;;;4236008;33;20054;-68
2023/04/04 03:00:54;;;;;;;5.03;2.62;;;;;;;;;;4236054;33;20511;-68
2023/04/04 03:03:21;;;;;;;7.30;2.40;;;;;;;;;;4233609;33;20059;-70
2023/04/04 03:05:48;;;;;;;1.65;1.27;;;;;;;;;;4249849;33;20038;-68
2023/04/04 03:08:14;;;;;;;7.72;1.83;;;;;;;;;;4248996;33;20038;-68
2023/04/04 03:10:41;;;;;;;7.32;1.62;;;;;;;;;;4249296;33;20319;-68
2023/04/04 03:13:07;;;;;;;7.25;2.12;;;;;;;;;;4244393;33;20103;-68
2023/04/04 03:15:33;;;;;;;3.72;2.10;;;;;;;;;;4233383;33;20514;-68
2023/04/04 03:18:00;;;;;;;7.05;2.47;;;;;;;;;;4237780;33;20062;-68
2023/04/04 03:20:27;;;;;;;13.07;2.37;;;;;;;;;;4235495;33;20074;-68
2023/04/04 03:22:53;;;;;;;8.57;2.15;;;;;;;;;;4235103;33;20038;-68
2023/04/04 03:25:20;;;;;;;12.35;2.37;;;;;;;;;;4233503;33;20039;-70
2023/04/04 03:27:46;;;;;;;8.32;2.35;;;;;;;;;;4234450;33;20064;-68
2023/04/04 03:30:16;;;;;;;8.80;2.35;;;;;;;;;;4234963;33;20120;-68
2023/04/04 03:32:43;;;;;;;2.70;1.73;;;;;;;;;;4235250;33;20084;-68
2023/04/04 03:35:10;;;;;;;9.75;2.40;;;;;;;;;;4234683;33;20073;-69
2023/04/04 03:37:36;;;;;;;3.78;2.00;;;;;;;;;;4232720;33;20038;-68
2023/04/04 03:40:03;;;;;;;19.95;2.78;;;;;;;;;;4234110;33;20212;-68
2023/04/04 03:42:33;;;;;;;6.97;2.60;;;;;;;;;;4234357;33;20081;-68
2023/04/04 03:45:00;;;;;;;6.07;2.97;;;;;;;;;;4235701;33;20042;-68
2023/04/04 03:47:26;;;;;;;8.55;2.67;;;;;;;;;;4232091;33;20060;-68
2023/04/04 03:49:54;;;;;;;14.55;4.15;;;;;;;;;;4235744;33;20231;-68
2023/04/04 03:52:22;;;;;;;10.93;4.18;;;;;;;;;;4234753;33;20269;-68
2023/04/04 03:54:48;;;;;;;8.75;4.35;;;;;;;;;;4235299;33;20038;-68
2023/04/04 03:57:15;;;;;;;17.77;5.28;;;;;;;;;;4208371;34;20051;-69
2023/04/04 03:59:41;;;;;;;10.55;4.32;;;;;;;;;;4193388;34;20039;-68
2023/04/04 04:02:08;;;;;;;17.73;5.60;;;;;;;;;;4206473;34;20063;-68
2023/04/04 04:04:34;;;;;;;16.95;5.43;;;;;;;;;;4206193;34;20077;-68
2023/04/04 04:07:01;;;;;;;20.95;5.25;;;;;;;;;;4206197;34;20055;-69
2023/04/04 04:09:27;;;;;;;16.83;4.97;;;;;;;;;;4207278;34;20071;-69
2023/04/04 04:11:53;;;;;;;9.27;3.75;;;;;;;;;;4205791;34;20061;-68
2023/04/04 04:14:19;;;;;;;13.43;4.53;;;;;;;;;;4206542;34;20056;-67
2023/04/04 04:16:46;;;;;;;21.67;4.40;;;;;;;;;;4206913;34;20087;-68
2023/04/04 04:19:13;;;;;;;15.10;4.43;;;;;;;;;;4206061;34;20394;-66
2023/04/04 04:21:41;;;;;;;11.65;4.43;;;;;;;;;;4205378;34;20409;-69
2023/04/04 04:24:07;;;;;;;25.20;4.35;;;;;;;;;;4206331;34;20831;-68
2023/04/04 04:26:34;;;;;;;14.60;5.30;;;;;;;;;;4207034;34;20060;-68
2023/04/04 04:29:01;;;;;;;13.35;5.68;;;;;;;;;;4218050;33;20158;-67
2023/04/04 04:31:27;;;;;;;11.60;5.30;;;;;;;;;;4206325;34;20069;-68
2023/04/04 04:33:55;;;;;;;15.52;5.10;;;;;;;;;;4203479;34;20169;-68
2023/04/04 04:36:22;;;;;;;16.98;5.95;;;;;;;;;;4206853;34;20817;-68
2023/04/04 04:38:49;;;;;;;16.62;5.22;;;;;;;;;;4207078;34;20035;-67
2023/04/04 04:41:16;;;;;;;15.90;5.12;;;;;;;;;;4220315;33;20054;-67
2023/04/04 04:43:43;;;;;;;24.60;5.53;;;;;;;;;;4220335;33;20039;-67
2023/04/04 04:46:09;;;;;;;14.50;4.95;;;;;;;;;;4220749;33;20109;-70
2023/04/04 04:48:35;;;;;;;16.73;5.32;;;;;;;;;;4205996;34;20038;-67
2023/04/04 04:51:03;;;;;;;16.67;4.82;;;;;;;;;;4200671;34;20508;-68
2023/04/04 04:53:30;;;;;;;19.87;5.18;;;;;;;;;;4191801;34;20171;-67
2023/04/04 04:55:58;;;;;;;9.88;4.07;;;;;;;;;;4193461;34;20051;-68
2023/04/04 04:58:24;;;;;;;10.05;4.15;;;;;;;;;;4192907;34;20048;-70
2023/04/04 05:00:56;;;;;;;7.45;3.53;;;;;;;;;;4193158;34;20087;-68
2023/04/04 05:03:23;;;;;;;13.30;4.40;;;;;;;;;;4196277;34;20093;-68
2023/04/04 05:05:56;;;;;;;13.13;5.32;;;;;;;;;;4194739;34;20135;-68
2023/04/04 05:08:22;;;;;;;12.68;3.80;;;;;;;;;;4192944;34;20154;-70
2023/04/04 05:10:51;;;;;;;14.50;4.90;;;;;;;;;;4177661;34;20070;-68
2023/04/04 05:13:19;;;;;;;16.35;5.12;;;;;;;;;;4192007;34;20081;-68
2023/04/04 05:15:46;;;;;;;14.25;5.80;;;;;;;;;;4181367;34;20056;-67
2023/04/04 05:18:13;;;;;;;17.95;5.22;;;;;;;;;;4179919;34;20337;-70
2023/04/04 05:20:40;;;;;;;10.32;4.97;;;;;;;;;;4192272;34;20847;-68
2023/04/04 05:23:07;;;;;;;20.50;5.43;;;;;;;;;;4195999;34;20058;-67
2023/04/04 05:25:34;;;;;;;11.25;5.80;;;;;;;;;;4181419;34;20044;-68
2023/04/04 05:28:02;;;;;;;17.80;5.25;;;;;;;;;;4181314;34;20129;-69
2023/04/04 05:30:29;;;;;;;12.80;4.85;;;;;;;;;;4178129;34;20055;-68
2023/04/04 05:32:57;;;;;;;14.85;4.35;;;;;;;;;;4192151;34;20634;-68
2023/04/04 05:35:24;;;;;;;14.25;3.95;;;;;;;;;;4163928;34;20510;-68
2023/04/04 05:37:52;;;;;;;15.20;4.80;;;;;;;;;;4171537;34;20074;-68
2023/04/04 05:40:19;;;;;;;6.53;3.40;;;;;;;;;;4165210;34;20051;-70
2023/04/04 05:42:54;;;;;;;10.80;3.85;;;;;;;;;;4184010;34;20095;-69
2023/04/04 05:45:28;;;;;;;7.62;4.18;;;;;;;;;;4184250;34;20115;-69
2023/04/04 05:47:54;;;;;;;;;;;;;;;;;;4180703;34;20058;-68
2023/04/04 05:50:21;;;;;;;12.82;3.67;;;;;;;;;;4178262;34;19952;-66
2023/04/04 05:52:48;;;;;;;18.15;4.90;;;;;;;;;;4187231;34;20113;-68
2023/04/04 05:55:16;;;;;;;3.25;1.62;;;;;;;;;;4206668;34;20054;-66
2023/04/04 05:57:49;;;;;;;8.68;2.62;;;;;;;;;;4206658;34;20039;-68
2023/04/04 06:00:20;;;;;;;9.43;3.50;;;;;;;;;;4207889;34;20058;-67
2023/04/04 06:02:55;;;;;;;12.10;3.33;;;;;;;;;;4187365;34;20048;-67
2023/04/04 06:05:21;;;;;;;8.63;3.05;;;;;;;;;;4186310;34;20101;-68
2023/04/04 06:07:47;;;;;;;11.77;2.97;;;;;;;;;;4217014;33;20094;-70
2023/04/04 06:10:13;;;;;;;7.12;2.45;;;;;;;;;;4194276;34;20947;-69
2023/04/04 06:12:46;;;;;;;13.60;2.80;;;;;;;;;;4194500;34;20072;-68
2023/04/04 06:15:13;;;;;;;4.05;2.58;;;;;;;;;;4191646;34;20083;-67
2023/04/04 06:17:40;;;;;;;1.75;1.40;;;;;;;;;;4189706;34;20062;-70
2023/04/04 06:20:07;;;;;;;6.18;2.45;;;;;;;;;;4192973;34;20760;-66
2023/04/04 06:22:33;;;;;;;5.60;2.50;;;;;;;;;;4218853;33;20054;-66
2023/04/04 06:25:01;;;;;;;9.32;2.83;;;;;;;;;;4206396;34;20420;-65
2023/04/04 06:27:28;;;;;;;6.68;3.45;;;;;;;;;;4218306;33;20434;-65
2023/04/04 06:29:56;;;;;;;9.75;2.60;;;;;;;;;;4219088;33;20494;-67
2023/04/04 06:32:22;;;;;;;11.15;2.33;;;;;;;;;;4207699;34;20042;-66
2023/04/04 06:34:48;;;;;;;2.87;2.10;;;;;;;;;;4232290;33;20045;-67
2023/04/04 06:37:16;;;;;;;3.40;1.42;;;;;;;;;;4233928;33;20038;-67
2023/04/04 06:39:45;;;;;;;6.28;2.45;;;;;;;;;;4232203;33;20051;-68
2023/04/04 06:42:12;;;;;;;3.72;1.65;;;;;;;;;;4234641;33;20806;-66
2023/04/04 06:44:49;;;;;;;3.83;2.00;;;;;;;;;;4234752;33;20519;-66
2023/04/04 06:47:16;;;;;;;4.80;1.87;;;;;;;;;;4234516;33;20042;-66
2023/04/04 06:49:42;;;;;;;9.55;3.30;;;;;;;;;;4233921;33;20097;-68
2023/04/04 06:52:08;;;;;;;11.60;2.17;;;;;;;;;;4221324;33;20045;-66
2023/04/04 06:54:34;;;;;;;4.55;2.55;;;;;;;;;;4221905;33;20038;-66
2023/04/04 06:57:01;;;;;;;2.55;1.15;;;;;;;;;;4220332;33;20043;-66
2023/04/04 06:59:27;;;;;;;3.80;1.73;;;;;;;;;;4221377;33;20273;-66
2023/04/04 07:01:55;;;;;;;9.95;2.17;;;;;;;;;;4218379;33;20058;-67
2023/04/04 07:04:22;;;;;;;3.58;1.92;;;;;;;;;;4220401;33;20108;-66
2023/04/04 07:06:48;;;;;;;3.72;1.95;;;;;;;;;;4220908;33;20059;-66
2023/04/04 07:09:14;;;;;;;1.42;1.00;;;;;;;;;;4195219;33;20047;-67
2023/04/04 07:11:41;;;;;;;2.67;1.83;;;;;;;;;;4204640;34;20043;-68
2023/04/04 07:14:07;;;;;;;2.62;1.73;;;;;;;;;;4188847;34;20144;-66
2023/04/04 07:16:35;;;;;;;3.00;1.60;;;;;;;;;;4193771;34;21021;-68
2023/04/04 07:19:01;;;;;;;7.82;1.85;;;;;;;;;;4193787;34;20111;-68
2023/04/04 07:21:27;;;;;;;1.30;1.20;;;;;;;;;;4196600;34;20108;-67
2023/04/04 07:23:53;;;;;;;2.53;0.70;;;;;;;;;;4204643;34;20062;-71
2023/04/04 07:26:20;;;;;;;8.73;1.92;;;;;;;;;;4206035;34;20047;-67
2023/04/04 07:28:46;;;;;;;5.30;2.55;;;;;;;;;;4207704;34;20945;-67
2023/04/04 07:31:13;;;;;;;5.60;1.75;;;;;;;;;;4206309;34;20046;-68
2023/04/04 07:33:40;;;;;;;6.53;2.10;;;;;;;;;;4206601;34;20046;-69
2023/04/04 07:36:06;;;;;;;3.20;1.73;;;;;;;;;;4205511;34;20190;-68
2023/04/04 07:38:32;;;;;;;10.75;2.65;;;;;;;;;;4204452;34;20118;-67
2023/04/04 07:40:58;;;;;;;2.72;2.35;;;;;;;;;;4228551;33;20472;-67
2023/04/04 07:43:24;;;;;;;14.65;2.70;;;;;;;;;;4236103;33;20072;-68
2023/04/04 07:45:52;;;;;;;2.25;1.17;;;;;;;;;;4236522;33;20072;-68
2023/04/04 07:48:19;;;;;;;2.67;1.37;;;;;;;;;;4229739;33;20198;-70
2023/04/04 07:50:45;;;;;;;1.67;1.35;;;;;;;;;;4235064;33;20396;-68
2023/04/04 07:53:11;;;;;;;11.40;3.80;;;;;;;;;;4232728;33;20202;-69
2023/04/04 07:55:38;;;;;;;4.57;2.08;;;;;;;;;;4233947;33;20840;-68
2023/04/04 07:58:03;;;;;;;2.78;1.73;;;;;;;;;;4233243;33;20038;-68
2023/04/04 08:00:30;;;;;;;7.55;2.22;;;;;;;;;;4232328;33;20072;-69
2023/04/04 08:03:01;;;;;;;2.50;1.00;;;;;;;;;;4232901;33;20062;-68
2023/04/04 08:05:27;;;;;;;11.88;2.22;;;;;;;;;;4234158;33;20266;-67
2023/04/04 08:07:53;;;;;;;6.97;2.30;;;;;;;;;;4233566;33;20417;-67
2023/04/04 08:10:20;;;;;;;2.20;1.37;;;;;;;;;;4233920;33;20435;-67
2023/04/04 08:12:47;;;;;;;5.70;2.20;;;;;;;;;;4217511;33;20031;-67
2023/04/04 08:15:14;;;;;;;2.05;1.40;;;;;;;;;;4219906;33;20472;-68
2023/04/04 08:17:42;;;;;;;5.47;1.25;;;;;;;;;;4220471;33;20059;-67
2023/04/04 08:20:08;;;;;;;1.08;1.08;;;;;;;;;;4191293;34;20487;-67
2023/04/04 08:22:34;;;;;;;7.10;1.80;;;;;;;;;;4191721;34;20040;-67
2023/04/04 08:25:02;;;;;;;3.37;1.80;;;;;;;;;;4179307;34;20044;-69
2023/04/04 08:27:28;;;;;;;4.72;1.20;;;;;;;;;;4178572;34;20113;-66
2023/04/04 08:29:55;;;;;;;5.00;1.90;;;;;;;;;;4197061;34;20043;-68
2023/04/04 08:32:22;;;;;;;20.20;2.20;;;;;;;;;;4209260;34;20470;-68
2023/04/04 08:34:51;;;;;;;10.48;3.60;;;;;;;;;;4195776;34;20539;-67
2023/04/04 08:37:20;;;;;;;3.97;1.42;;;;;;;;;;4194085;34;20512;-66
2023/04/04 08:39:47;;;;;;;5.55;2.03;;;;;;;;;;4195491;34;20079;-67
2023/04/04 08:42:15;;;;;;;1.48;1.12;;;;;;;;;;4194513;34;20069;-67
2023/04/04 08:44:44;;;;;;;10.98;2.50;;;;;;;;;;4195596;34;20077;-67
2023/04/04 08:47:11;;;;;;;3.28;1.25;;;;;;;;;;4192128;34;20044;-67
2023/04/04 08:49:39;;;;;;;3.65;1.85;;;;;;;;;;4196765;34;20339;-66
2023/04/04 08:52:07;;;;;;;12.48;1.50;;;;;;;;;;4194311;34;20077;-67
2023/04/04 08:54:36;;;;;;;5.87;1.55;;;;;;;;;;4208324;34;20055;-69
2023/04/04 08:57:02;;;;;;;8.60;2.28;;;;;;;;;;4193999;34;20073;-72
2023/04/04 08:59:29;;;;;;;4.35;1.27;;;;;;;;;;4193356;34;20052;-68
2023/04/04 09:01:59;;;;;;;8.65;2.75;;;;;;;;;;4184795;34;20081;-67
2023/04/04 09:04:26;;;;;;;5.75;0.95;;;;;;;;;;4194164;34;20059;-68
2023/04/04 09:06:52;;;;;;;5.85;2.12;;;;;;;;;;4194436;34;20386;-67
2023/04/04 09:09:18;;;;;;;0.77;0.77;;;;;;;;;;4191547;34;20043;-68
2023/04/04 09:11:46;;;;;;;2.53;1.35;;;;;;;;;;4204811;34;20616;-69
2023/04/04 09:14:12;;;;;;;3.03;1.20;;;;;;;;;;4178390;34;20060;-68
2023/04/04 09:16:39;;;;;;;4.12;1.60;;;;;;;;;;4189904;34;20058;-68
2023/04/04 09:19:06;;;;;;;2.47;1.67;;;;;;;;;;4194980;34;20055;-69
2023/04/04 09:21:33;;;;;;;3.15;1.58;;;;;;;;;;4193626;34;20051;-68
2023/04/04 09:24:00;;;;;;;1.67;1.10;;;;;;;;;;4202730;34;20067;-67
2023/04/04 09:26:26;;;;;;;5.18;1.90;;;;;;;;;;4200517;34;20047;-68
2023/04/04 09:28:53;;;;;;;6.22;1.95;;;;;;;;;;4212845;34;20203;-67
2023/04/04 09:31:19;;;;;;;3.65;1.73;;;;;;;;;;4219462;33;20027;-71
2023/04/04 09:33:47;;;;;;;2.20;1.35;;;;;;;;;;4188315;34;20044;-67
2023/04/04 09:36:14;;;;;;;2.83;1.50;;;;;;;;;;4182368;34;20073;-68
2023/04/04 09:38:45;;;;;;;3.12;1.05;;;;;;;;;;4186788;34;20039;-68
2023/04/04 09:41:13;;;;;;;3.03;1.40;;;;;;;;;;4169707;34;20043;-67
2023/04/04 09:43:40;;;;;;;4.95;1.45;;;;;;;;;;4180272;34;20065;-68
2023/04/04 09:46:06;;;;;;;4.20;1.65;;;;;;;;;;4184835;34;20052;-68
2023/04/04 09:48:33;;;;;;;4.45;1.58;;;;;;;;;;4188422;34;20068;-68
2023/04/04 09:51:02;;;;;;;1.85;1.20;;;;;;;;;;4180055;34;20159;-69
2023/04/04 09:53:29;;;;;;;0.73;0.73;;;;;;;;;;4199665;34;20495;-70
2023/04/04 09:55:56;;;;;;;3.62;1.20;;;;;;;;;;4202762;34;20075;-69
2023/04/04 09:58:26;;;;;;;5.30;1.50;;;;;;;;;;4204427;34;20065;-68
2023/04/04 10:00:54;;;;;;;4.53;1.23;;;;;;;;;;4204600;34;20043;-68
2023/04/04 10:03:22;;;;;;;3.50;2.40;;;;;;;;;;4201787;34;20056;-70
2023/04/04 10:05:53;;;;;;;1.95;1.23;;;;;;;;;;4191950;34;20095;-69
2023/04/04 10:08:20;;;;;;;3.28;1.83;;;;;;;;;;4192472;34;20114;-68
2023/04/04 10:10:57;;;;;;;8.27;1.70;;;;;;;;;;4192713;34;20086;-69
2023/04/04 10:13:24;;;;;;;7.82;1.80;;;;;;;;;;4187625;34;20043;-68
2023/04/04 10:15:52;;;;;;;1.30;1.20;;;;;;;;;;4188601;34;20056;-68
2023/04/04 10:18:20;;;;;;;1.77;1.65;;;;;;;;;;4190118;34;20057;-68
2023/04/04 10:20:47;;;;;;;2.08;1.80;;;;;;;;;;4191257;34;20482;-67
2023/04/04 10:23:15;;;;;;;7.20;2.28;;;;;;;;;;4188645;34;20106;-69
2023/04/04 10:25:41;;;;;;;11.43;2.22;;;;;;;;;;4188681;34;20047;-68
2023/04/04 10:28:08;;;;;;;4.15;1.75;;;;;;;;;;4179835;34;20081;-69
2023/04/04 10:30:39;;;;;;;7.20;2.92;;;;;;;;;;4189454;34;20031;-68
2023/04/04 10:33:06;;;;;;;13.62;3.87;;;;;;;;;;4179061;34;20175;-69
2023/04/04 10:35:34;;;;;;;8.20;2.78;;;;;;;;;;4160980;34;20085;-69
2023/04/04 10:38:02;;;;;;;4.95;1.87;;;;;;;;;;4165485;34;20064;-68
2023/04/04 10:40:33;;;;;;;5.47;1.45;;;;;;;;;;4164849;34;20064;-69
2023/04/04 10:43:01;;;;;;;2.90;1.95;;;;;;;;;;4164582;34;20043;-70
2023/04/04 10:45:30;;;;;;;6.53;2.87;;;;;;;;;;4191188;34;20047;-69
2023/04/04 10:47:57;;;;;;;6.03;2.53;;;;;;;;;;4193074;34;20065;-69
2023/04/04 10:50:23;;;;;;;4.00;1.58;;;;;;;;;;4193176;34;20078;-69
2023/04/04 10:52:50;;;;;;;3.45;1.42;;;;;;;;;;4199524;34;20051;-69
2023/04/04 10:55:16;;;;;;;6.93;2.00;;;;;;;;;;4210700;34;20065;-70
2023/04/04 10:57:46;;;;;;;4.80;2.03;;;;;;;;;;4212498;34;20073;-69
2023/04/04 11:03:15;;;;;;;2.80;1.83;;;;;;;;;;4063599;31;20085;-68
2023/04/04 11:05:50;;;;;;;7.65;2.92;;;;;;;;;;4223039;33;20092;-69
2023/04/04 11:08:24;;;;;;;4.78;2.75;;;;;;;;;;4213249;33;20114;-69
2023/04/04 11:10:51;;;;;;;4.72;1.48;;;;;;;;;;4194105;34;20077;-69
2023/04/04 11:13:31;;;;;;;5.35;2.50;;;;;;;;;;4161452;34;20104;-70
2023/04/04 11:15:59;;;;;;;2.03;1.30;;;;;;;;;;4176030;34;20060;-70
2023/04/04 11:18:30;;;;;;;1.70;1.08;;;;;;;;;;4157061;34;20052;-69
2023/04/04 11:21:01;;;;;;;8.00;2.42;;;;;;;;;;4149802;34;20441;-71
2023/04/04 11:23:37;;;;;;;6.43;1.95;;;;;;;;;;4150274;34;20060;-69
2023/04/04 11:26:06;;;;;;;8.23;2.33;;;;;;;;;;4151531;34;20092;-69
2023/04/04 11:28:35;;;;;;;6.03;2.00;;;;;;;;;;4152314;34;20054;-70
2023/04/04 11:31:14;;;;;;;2.75;1.60;;;;;;;;;;4147850;34;20070;-70
2023/04/04 11:33:54;;;;;;;2.42;1.40;;;;;;;;;;4158731;34;20066;-69
2023/04/04 11:36:35;;;;;;;1.67;1.23;;;;;;;;;;4166486;34;20069;-69
2023/04/04 11:39:06;;;;;;;9.13;2.53;;;;;;;;;;4158074;34;20407;-69
2023/04/04 11:41:43;;;;;;;3.30;1.10;;;;;;;;;;4167412;34;20319;-70
2023/04/04 11:44:10;;;;;;;2.55;1.92;;;;;;;;;;4178791;34;20032;-69
2023/04/04 11:46:45;;;;;;;4.87;2.30;;;;;;;;;;4188046;34;20576;-71
2023/04/04 11:49:12;;;;;;;3.50;2.58;;;;;;;;;;4180065;34;20085;-69
2023/04/04 11:51:41;;;;;;;4.55;2.05;;;;;;;;;;4178111;34;20059;-69
2023/04/04 11:54:17;;;;;;;11.10;3.87;;;;;;;;;;4179511;34;20240;-69
2023/04/04 11:56:44;;;;;;;8.35;2.60;;;;;;;;;;4177396;34;20502;-70
2023/04/04 11:59:10;;;;;;;3.40;1.65;;;;;;;;;;4152032;34;20082;-69
2023/04/04 12:01:37;;;;;;;7.05;2.15;;;;;;;;;;4153073;34;20048;-69
2023/04/04 12:04:04;;;;;;;5.72;1.67;;;;;;;;;;4153666;34;20193;-69
2023/04/04 12:06:34;;;;;;;5.18;0.93;;;;;;;;;;4157996;34;20078;-71
2023/04/04 12:09:01;;;;;;;1.83;1.30;;;;;;;;;;4158696;34;20055;-70
2023/04/04 12:11:28;;;;;;;1.20;1.12;;;;;;;;;;4156449;34;20048;-69
2023/04/04 12:13:54;;;;;;;5.25;1.17;;;;;;;;;;4163122;34;20052;-69
2023/04/04 12:16:27;;;;;;;4.82;1.83;;;;;;;;;;4164328;34;20052;-70
2023/04/04 12:18:56;;;;;;;2.28;1.83;;;;;;;;;;4196085;34;21197;-70
2023/04/04 12:21:23;;;;;;;7.65;2.12;;;;;;;;;;4196296;34;20144;-69
2023/04/04 12:23:49;;;;;;;5.93;1.92;;;;;;;;;;4195547;34;20043;-70
2023/04/04 12:26:16;;;;;;;9.52;1.33;;;;;;;;;;4194733;34;20056;-71
2023/04/04 12:28:44;;;;;;;11.25;2.37;;;;;;;;;;4208716;34;20126;-70
2023/04/04 12:31:11;;;;;;;2.35;1.23;;;;;;;;;;4221517;33;20463;-70
2023/04/04 12:33:39;;;;;;;79.22;6.75;;;;;;;;;;4222282;33;20057;-69
2023/04/04 12:36:12;;;;;;;3.72;1.62;;;;;;;;;;4208776;34;20051;-69
2023/04/04 12:38:55;;;;;;;7.85;2.58;;;;;;;;;;4206637;34;20568;-71
2023/04/04 12:41:22;;;;;;;14.80;1.87;;;;;;;;;;4209200;34;20076;-69
2023/04/04 12:43:48;;;;;;;7.95;2.20;;;;;;;;;;4210758;34;20173;-69
2023/04/04 12:46:15;;;;;;;3.40;1.48;;;;;;;;;;4208443;34;20446;-70
2023/04/04 12:48:41;;;;;;;3.83;2.30;;;;;;;;;;4206479;34;20142;-71
2023/04/04 12:51:09;;;;;;;1.80;1.62;;;;;;;;;;4208695;34;20113;-69
2023/04/04 12:53:48;;;;;;;8.05;3.00;;;;;;;;;;4211127;34;20356;-70
2023/04/04 12:56:15;;;;;;;11.45;3.92;;;;;;;;;;4205163;34;20073;-71
2023/04/04 12:58:45;;;;;;;6.95;2.78;;;;;;;;;;4213159;33;20786;-70
2023/04/04 13:01:11;;;;;;;8.75;2.85;;;;;;;;;;4182070;34;20060;-70
2023/04/04 13:03:38;;;;;;;9.00;2.70;;;;;;;;;;4191862;34;20453;-69
2023/04/04 13:06:10;;;;;;;1.70;1.60;;;;;;;;;;4183990;34;20185;-69
2023/04/04 13:08:36;;;;;;;7.07;2.55;;;;;;;;;;4170295;34;20069;-70
2023/04/04 13:11:04;;;;;;;11.07;2.50;;;;;;;;;;4179769;34;20412;-70
2023/04/04 13:13:30;;;;;;;6.30;2.70;;;;;;;;;;4181087;34;20358;-70
2023/04/04 13:15:57;;;;;;;15.18;3.85;;;;;;;;;;4186148;34;20437;-70
2023/04/04 13:18:24;;;;;;;11.05;3.78;;;;;;;;;;4184247;34;20398;-70
2023/04/04 13:20:53;;;;;;;6.80;3.22;;;;;;;;;;4183307;34;20125;-70
2023/04/04 13:23:20;;;;;;;5.28;2.12;;;;;;;;;;4180197;34;20446;-71
2023/04/04 13:25:53;;;;;;;6.12;2.72;;;;;;;;;;4183274;34;20124;-69
2023/04/04 13:28:20;;;;;;;5.82;1.92;;;;;;;;;;4202913;34;20048;-70
2023/04/04 13:30:47;;;;;;;9.68;4.00;;;;;;;;;;4198715;34;20039;-71
2023/04/04 13:33:14;;;;;;;5.40;2.62;;;;;;;;;;4217211;34;20094;-69
2023/04/04 13:35:47;;;;;;;12.30;3.80;;;;;;;;;;4213481;34;20479;-69
2023/04/04 13:38:14;;;;;;;4.37;1.75;;;;;;;;;;4208622;34;20082;-70
2023/04/04 13:40:40;;;;;;;2.53;1.55;;;;;;;;;;4203034;34;20095;-70
2023/04/04 13:43:06;;;;;;;8.65;3.65;;;;;;;;;;4196315;34;20239;-70
2023/04/04 13:45:33;;;;;;;11.50;4.15;;;;;;;;;;4197072;34;20088;-70
2023/04/04 13:48:00;;;;;;;4.50;1.73;;;;;;;;;;4193158;34;20059;-70
2023/04/04 13:50:26;;;;;;;8.90;3.55;;;;;;;;;;4193318;34;20059;-69
2023/04/04 13:52:53;;;;;;;7.00;2.72;;;;;;;;;;4192502;34;20100;-69
2023/04/04 13:55:20;;;;;;;4.20;2.33;;;;;;;;;;4192597;34;20585;-70
2023/04/04 13:57:46;;;;;;;5.65;2.70;;;;;;;;;;4178665;34;20102;-69
2023/04/04 14:00:13;;;;;;;3.47;2.55;;;;;;;;;;4180372;34;20048;-70
2023/04/04 14:02:39;;;;;;;2.28;1.58;;;;;;;;;;4179729;34;20063;-70
2023/04/04 14:05:06;;;;;;;12.32;2.75;;;;;;;;;;4179546;34;20514;-73
2023/04/04 14:07:32;;;;;;;5.45;2.22;;;;;;;;;;4178349;34;20090;-70
2023/04/04 14:09:59;;;;;;;9.80;3.45;;;;;;;;;;4180484;34;20052;-69
2023/04/04 14:12:26;;;;;;;6.80;3.00;;;;;;;;;;4179629;34;20435;-69
2023/04/04 14:14:52;;;;;;;8.88;3.58;;;;;;;;;;4179739;34;20065;-69
2023/04/04 14:17:18;;;;;;;8.52;2.10;;;;;;;;;;4178958;34;20052;-70
2023/04/04 14:19:44;;;;;;;2.62;1.73;;;;;;;;;;4172917;34;20081;-69
2023/04/04 14:22:11;;;;;;;3.95;1.70;;;;;;;;;;4168221;34;20069;-69
2023/04/04 14:24:37;;;;;;;4.55;1.90;;;;;;;;;;4165119;34;20137;-69
2023/04/04 14:27:03;;;;;;;16.25;5.45;;;;;;;;;;4165080;34;20092;-70
2023/04/04 14:29:30;;;;;;;6.28;2.70;;;;;;;;;;4170335;34;20199;-70
2023/04/04 14:31:56;;;;;;;13.48;3.90;;;;;;;;;;4177203;34;20435;-70
2023/04/04 14:34:25;;;;;;;14.75;4.25;;;;;;;;;;4170252;34;20078;-70
2023/04/04 14:36:51;;;;;;;23.87;5.85;;;;;;;;;;4179856;34;20047;-69
2023/04/04 14:39:17;;;;;;;10.30;4.20;;;;;;;;;;4178919;34;20075;-69
2023/04/04 14:41:43;;;;;;;6.97;2.28;;;;;;;;;;4199767;34;20491;-72
2023/04/04 14:44:09;;;;;;;30.73;9.40;;;;;;;;;;4206264;34;20454;-69
2023/04/04 14:46:36;;;;;;;18.70;5.15;;;;;;;;;;4208600;34;20488;-68
2023/04/04 14:49:04;;;;;;;9.48;4.07;;;;;;;;;;4200031;34;20039;-69
2023/04/04 14:51:31;;;;;;;7.80;3.40;;;;;;;;;;4217759;34;20039;-69
2023/04/04 14:53:57;;;;;;;6.25;3.28;;;;;;;;;;4218503;33;20064;-71
2023/04/04 14:56:23;;;;;;;8.35;2.80;;;;;;;;;;4221416;34;20112;-69
2023/04/04 14:58:50;;;;;;;5.57;2.62;;;;;;;;;;4220362;33;20071;-69
2023/04/04 15:01:16;;;;;;;6.40;2.97;;;;;;;;;;4222826;33;20125;-68
2023/04/04 15:03:43;;;;;;;5.07;2.20;;;;;;;;;;4234806;33;20085;-69
2023/04/04 15:06:08;;;;;;;3.75;2.03;;;;;;;;;;4235280;33;20140;-69
2023/04/04 15:08:35;;;;;;;5.03;2.42;;;;;;;;;;4234217;33;20050;-68
2023/04/04 15:11:01;;;;;;;5.07;2.05;;;;;;;;;;4234692;33;20581;-69
2023/04/04 15:13:27;;;;;;;6.30;2.40;;;;;;;;;;4221146;34;20668;-72
2023/04/04 15:15:53;;;;;;;10.65;3.15;;;;;;;;;;4207517;34;20109;-70
2023/04/04 15:18:20;;;;;;;7.20;2.20;;;;;;;;;;4207439;34;20116;-69
2023/04/04 15:20:46;;;;;;;6.28;1.92;;;;;;;;;;4210070;34;20052;-73
2023/04/04 15:23:12;;;;;;;3.47;1.77;;;;;;;;;;4233951;33;20199;-70
2023/04/04 15:25:39;;;;;;;6.25;2.72;;;;;;;;;;4235119;33;20117;-69
2023/04/04 15:28:05;;;;;;;5.62;2.20;;;;;;;;;;4235484;33;20153;-68
2023/04/04 15:30:32;;;;;;;7.55;2.35;;;;;;;;;;4235566;33;20046;-69
2023/04/04 15:32:58;;;;;;;5.18;2.50;;;;;;;;;;4206398;34;20571;-70
2023/04/04 15:35:24;;;;;;;4.47;1.90;;;;;;;;;;4205848;34;20054;-69
2023/04/04 15:37:50;;;;;;;7.03;2.83;;;;;;;;;;4208005;34;20059;-68
2023/04/04 15:40:17;;;;;;;7.93;3.15;;;;;;;;;;4205529;34;20050;-68
2023/04/04 15:42:44;;;;;;;4.30;1.87;;;;;;;;;;4203887;34;20073;-69
2023/04/04 15:45:11;;;;;;;9.57;5.35;;;;;;;;;;4218311;34;20527;-69
2023/04/04 15:47:38;;;;;;;7.53;3.67;;;;;;;;;;4232937;33;20179;-68
2023/04/04 15:50:04;;;;;;;8.18;2.28;;;;;;;;;;4235713;33;20100;-68
2023/04/04 15:52:31;;;;;;;29.20;6.32;;;;;;;;;;4234029;33;20046;-68
2023/04/04 15:54:57;;;;;;;17.85;3.62;;;;;;;;;;4223465;33;20413;-68
2023/04/04 15:57:23;;;;;;;6.65;2.65;;;;;;;;;;4220529;33;20820;-68
2023/04/04 15:59:49;;;;;;;5.80;2.40;;;;;;;;;;4219495;33;20042;-72
2023/04/04 16:02:15;;;;;;;5.55;2.67;;;;;;;;;;4219646;33;20050;-70
2023/04/04 16:04:42;;;;;;;9.40;3.40;;;;;;;;;;4210240;34;20962;-68
2023/04/04 16:07:08;;;;;;;8.95;3.25;;;;;;;;;;4219624;34;20063;-69
2023/04/04 16:09:35;;;;;;;9.13;2.58;;;;;;;;;;4221207;34;20126;-69
2023/04/04 16:12:01;;;;;;;14.87;3.15;;;;;;;;;;4220165;34;20056;-69
2023/04/04 16:14:27;;;;;;;12.20;4.22;;;;;;;;;;4218418;34;20486;-69
2023/04/04 16:16:54;;;;;;;8.07;3.10;;;;;;;;;;4219839;33;20082;-68
2023/04/04 16:19:20;;;;;;;10.18;4.60;;;;;;;;;;4210099;34;20047;-68
2023/04/04 16:21:48;;;;;;;5.68;3.20;;;;;;;;;;4203049;34;20046;-71
2023/04/04 16:24:14;;;;;;;6.35;3.17;;;;;;;;;;4202814;34;20075;-70
2023/04/04 16:26:46;;;;;;;6.57;3.47;;;;;;;;;;4203516;34;20170;-73
2023/04/04 16:29:12;;;;;;;8.23;3.42;;;;;;;;;;4206481;34;20055;-69
2023/04/04 16:31:39;;;;;;;12.35;3.20;;;;;;;;;;4206360;34;20478;-70
2023/04/04 16:34:05;;;;;;;15.18;4.72;;;;;;;;;;4219644;34;20050;-69
2023/04/04 16:36:31;;;;;;;9.05;3.58;;;;;;;;;;4220269;34;20126;-70
2023/04/04 16:38:58;;;;;;;5.57;2.70;;;;;;;;;;4217816;34;20042;-69
2023/04/04 16:41:25;;;;;;;8.82;3.22;;;;;;;;;;4215471;34;20461;-70
2023/04/04 16:43:51;;;;;;;8.52;2.97;;;;;;;;;;4221092;34;20032;-68
2023/04/04 16:46:18;;;;;;;8.35;2.67;;;;;;;;;;4214766;34;20055;-69